»·PEaware :: N7375Q L77-L88

N7375Q :: L77-L88

FLIGHT INFORMATION

Flight Status: Arrived
Operator: Privately registered:
United States
More flights under this callsign
Pilot: Ion I. (24133)
Aircraft: SOCATA TBM-900
(TBM9)
More flights by this aircraft type
Origin: L77 Chiriaco Summit
United States
Destination: L88 New Cuyama
United States
More flights between these airports :: More routes between these airports
Route: DIRECT
File this flight plan on PilotEdge
Remarks:
Altitude:
(Current/Filed)
16,500ft
Speed:
(Current/Filed)
250kts
Departed: 02-Aug-20 11:42 AM
Arrived: 02-Aug-20 12:36 PM
Distance/Time
Traveled:
212nm/0:54
Distance/Time
To Go:
Arrived

Flight Plot

Page will automatically refresh every two minutes.


Map Options




Map Legend


Flown Route
Filed Route
Departure Airport
Arrival Airport
Navaid (VOR, NDB)
Fix

Horizontal Profiles

Position Reports

Time Latitude Longitude Heading Altitude Ground
Speed
02-Aug-20 11:37 33.661888 -115.719200 281 1693ft 0kts
02-Aug-20 11:38 33.661888 -115.719200 281 1693ft 0kts
02-Aug-20 11:39 33.662639 -115.719756 346 1693ft 7kts
02-Aug-20 11:40 33.663643 -115.717516 75 1693ft 9kts
02-Aug-20 11:41 33.665718 -115.705240 79 1842ft 115kts
02-Aug-20 11:42 33.677535 -115.670479 11 4017ft 128kts
02-Aug-20 11:43 33.701809 -115.698573 297 6217ft 142kts
02-Aug-20 11:44 33.716874 -115.743694 288 8316ft 155kts
02-Aug-20 11:45 33.733704 -115.795900 287 10440ft 175kts
02-Aug-20 11:46 33.750829 -115.849396 286 12459ft 171kts
02-Aug-20 11:47 33.768209 -115.903919 288 14452ft 179kts
02-Aug-20 11:48 33.786369 -115.960842 289 16422ft 189kts
02-Aug-20 11:49 33.806764 -116.031275 280 16521ft 249kts
02-Aug-20 11:50 33.820490 -116.117041 280 16502ft 267kts
02-Aug-20 11:51 33.834648 -116.205887 280 16498ft 271kts
02-Aug-20 11:53 33.848864 -116.295558 280 16497ft 273kts
02-Aug-20 11:54 33.863024 -116.385346 280 16497ft 273kts
02-Aug-20 11:55 33.889175 -116.470166 298 16498ft 274kts
02-Aug-20 11:56 33.927186 -116.549882 298 16496ft 275kts
02-Aug-20 11:57 33.965276 -116.630104 298 16497ft 275kts
02-Aug-20 11:58 33.998125 -116.699434 298 16498ft 276kts
02-Aug-20 11:59 34.036147 -116.779852 298 16498ft 275kts
02-Aug-20 12:00 34.074052 -116.860273 298 16498ft 275kts
02-Aug-20 12:01 34.111971 -116.940882 298 16565ft 274kts
02-Aug-20 12:02 34.149789 -117.021484 298 16484ft 276kts
02-Aug-20 12:03 34.187543 -117.102104 298 16529ft 274kts
02-Aug-20 12:04 34.225097 -117.182490 298 16550ft 274kts
02-Aug-20 12:05 34.262646 -117.262996 298 16560ft 274kts
02-Aug-20 12:06 34.300104 -117.343547 298 16560ft 275kts
02-Aug-20 12:07 34.337499 -117.424118 298 16560ft 275kts
02-Aug-20 12:08 34.374926 -117.504934 298 16560ft 275kts
02-Aug-20 12:09 34.412413 -117.586062 298 16560ft 275kts
02-Aug-20 12:10 34.449820 -117.667199 297 16537ft 275kts
02-Aug-20 12:10 34.480929 -117.734797 297 16537ft 275kts
02-Aug-20 12:12 34.524496 -117.829720 297 16537ft 275kts
02-Aug-20 12:13 34.561722 -117.911062 297 16525ft 275kts
02-Aug-20 12:13 34.592733 -117.978966 297 16512ft 275kts
02-Aug-20 12:14 34.629799 -118.060441 295 16496ft 274kts
02-Aug-20 12:15 34.650213 -118.149388 284 16495ft 273kts
02-Aug-20 12:16 34.669891 -118.239291 284 16488ft 273kts
02-Aug-20 12:17 34.689415 -118.328775 283 16481ft 273kts
02-Aug-20 12:18 34.708867 -118.418316 283 16481ft 273kts
02-Aug-20 12:19 34.728140 -118.507357 283 16484ft 272kts
02-Aug-20 12:20 34.747456 -118.596951 283 16521ft 271kts
02-Aug-20 12:21 34.766550 -118.685851 283 16590ft 271kts
02-Aug-20 12:22 34.785634 -118.775032 283 16640ft 271kts
02-Aug-20 12:23 34.804500 -118.864143 281 16599ft 274kts
02-Aug-20 12:24 34.820467 -118.959235 280 15254ft 293kts
02-Aug-20 12:25 34.836996 -119.057389 281 13609ft 296kts
02-Aug-20 12:26 34.845862 -119.155302 275 11895ft 284kts
02-Aug-20 12:27 34.852940 -119.250147 275 10178ft 280kts
02-Aug-20 12:28 34.859321 -119.343152 275 8146ft 266kts
02-Aug-20 12:29 34.865031 -119.430585 275 6130ft 255kts
02-Aug-20 12:30 34.882183 -119.507901 287 4207ft 215kts
02-Aug-20 12:31 34.898563 -119.569653 287 3336ft 157kts
02-Aug-20 12:32 34.910176 -119.610218 287 3247ft 110kts
02-Aug-20 12:33 34.922589 -119.643080 296 3020ft 105kts
02-Aug-20 12:34 34.935082 -119.673641 294 2380ft 95kts
02-Aug-20 12:35 34.942030 -119.690603 339 2164ft 8kts
02-Aug-20 12:36 34.942456 -119.690666 290 2162ft 0kts
02-Aug-20 12:37 34.942456 -119.690665 290 2162ft 0kts
02-Aug-20 12:38 34.942456 -119.690666 290 2162ft 0kts
02-Aug-20 12:39 34.942456 -119.690666 290 2162ft 0kts

Navigation Log

Ident Type
Flight plan parsing failed, navigation log unavailable